sensor_id;sensor_type;location;lat;lon;timestamp;P1;durP1;ratioP1;P2;durP2;ratioP2
1164;SDS011;571;50.930;6.926;2022-09-30T04:01:58;10.50;;;7.57;;
1164;SDS011;571;50.930;6.926;2022-09-30T04:04:24;11.90;;;7.80;;
1164;SDS011;571;50.930;6.926;2022-09-30T04:06:51;9.63;;;8.70;;
1164;SDS011;571;50.930;6.926;2022-09-30T04:09:18;12.50;;;9.07;;
1164;SDS011;571;50.930;6.926;2022-09-30T04:11:44;8.83;;;7.93;;
1164;SDS011;571;50.930;6.926;2022-09-30T04:14:11;11.53;;;8.43;;
1164;SDS011;571;50.930;6.926;2022-09-30T04:16:38;8.80;;;7.50;;
1164;SDS011;571;50.930;6.926;2022-09-30T04:19:07;9.50;;;8.13;;
1164;SDS011;571;50.930;6.926;2022-09-30T04:21:34;10.97;;;8.43;;
1164;SDS011;571;50.930;6.926;2022-09-30T04:24:00;13.10;;;8.10;;
1164;SDS011;571;50.930;6.926;2022-09-30T04:26:27;9.73;;;8.77;;
1164;SDS011;571;50.930;6.926;2022-09-30T04:28:54;15.43;;;9.60;;
1164;SDS011;571;50.930;6.926;2022-09-30T04:31:22;11.50;;;8.70;;
1164;SDS011;571;50.930;6.926;2022-09-30T04:33:50;10.50;;;8.27;;
1164;SDS011;571;50.930;6.926;2022-09-30T04:36:18;9.10;;;8.30;;
1164;SDS011;571;50.930;6.926;2022-09-30T04:38:45;10.97;;;9.57;;
1164;SDS011;571;50.930;6.926;2022-09-30T04:41:12;8.90;;;8.00;;
1164;SDS011;571;50.930;6.926;2022-09-30T04:43:42;9.70;;;8.70;;
1164;SDS011;571;50.930;6.926;2022-09-30T04:46:09;9.77;;;8.57;;
1164;SDS011;571;50.930;6.926;2022-09-30T04:48:36;9.30;;;8.40;;
1164;SDS011;571;50.930;6.926;2022-09-30T04:51:03;9.80;;;8.80;;
1164;SDS011;571;50.930;6.926;2022-09-30T04:53:31;11.53;;;9.07;;
1164;SDS011;571;50.930;6.926;2022-09-30T04:55:58;11.17;;;9.40;;
1164;SDS011;571;50.930;6.926;2022-09-30T04:58:26;10.53;;;8.70;;
1164;SDS011;571;50.930;6.926;2022-09-30T05:00:58;9.03;;;8.13;;
1164;SDS011;571;50.930;6.926;2022-09-30T05:03:25;9.30;;;8.30;;
1164;SDS011;571;50.930;6.926;2022-09-30T05:05:52;12.73;;;8.60;;
1164;SDS011;571;50.930;6.926;2022-09-30T05:08:19;14.80;;;10.07;;
1164;SDS011;571;50.930;6.926;2022-09-30T05:10:53;12.13;;;10.07;;
1164;SDS011;571;50.930;6.926;2022-09-30T05:13:21;10.60;;;9.13;;
1164;SDS011;571;50.930;6.926;2022-09-30T05:15:48;11.30;;;8.13;;
1164;SDS011;571;50.930;6.926;2022-09-30T05:18:15;13.60;;;9.00;;
1164;SDS011;571;50.930;6.926;2022-09-30T05:20:43;11.47;;;9.77;;
1164;SDS011;571;50.930;6.926;2022-09-30T05:23:10;11.37;;;10.07;;
1164;SDS011;571;50.930;6.926;2022-09-30T05:25:36;12.07;;;8.50;;
1164;SDS011;571;50.930;6.926;2022-09-30T05:28:04;10.60;;;8.70;;
1164;SDS011;571;50.930;6.926;2022-09-30T05:30:32;8.13;;;7.30;;
1164;SDS011;571;50.930;6.926;2022-09-30T05:32:59;8.87;;;7.87;;
1164;SDS011;571;50.930;6.926;2022-09-30T05:35:26;10.63;;;9.07;;
1164;SDS011;571;50.930;6.926;2022-09-30T05:37:53;9.20;;;8.30;;
1164;SDS011;571;50.930;6.926;2022-09-30T05:40:19;11.00;;;9.27;;
1164;SDS011;571;50.930;6.926;2022-09-30T05:42:46;11.10;;;8.60;;
1164;SDS011;571;50.930;6.926;2022-09-30T05:45:15;11.90;;;8.13;;
1164;SDS011;571;50.930;6.926;2022-09-30T05:47:42;8.90;;;8.10;;
1164;SDS011;571;50.930;6.926;2022-09-30T05:50:15;9.80;;;8.23;;
1164;SDS011;571;50.930;6.926;2022-09-30T05:52:42;9.67;;;8.37;;
1164;SDS011;571;50.930;6.926;2022-09-30T05:55:09;9.10;;;8.00;;
1164;SDS011;571;50.930;6.926;2022-09-30T05:57:36;10.90;;;7.53;;
1164;SDS011;571;50.930;6.926;2022-09-30T06:00:03;9.70;;;7.93;;
1164;SDS011;571;50.930;6.926;2022-09-30T06:02:33;8.60;;;7.27;;
1164;SDS011;571;50.930;6.926;2022-09-30T06:05:02;12.53;;;8.80;;
1164;SDS011;571;50.930;6.926;2022-09-30T06:07:29;9.10;;;8.07;;
1164;SDS011;571;50.930;6.926;2022-09-30T06:09:56;8.93;;;8.03;;
1164;SDS011;571;50.930;6.926;2022-09-30T06:12:22;9.27;;;8.37;;
1164;SDS011;571;50.930;6.926;2022-09-30T06:14:52;14.80;;;7.30;;
1164;SDS011;571;50.930;6.926;2022-09-30T06:17:19;7.87;;;7.00;;
1164;SDS011;571;50.930;6.926;2022-09-30T06:19:47;8.03;;;7.23;;
1164;SDS011;571;50.930;6.926;2022-09-30T06:22:14;7.50;;;6.73;;
1164;SDS011;571;50.930;6.926;2022-09-30T06:24:42;8.43;;;7.37;;
1164;SDS011;571;50.930;6.926;2022-09-30T06:27:08;8.17;;;7.47;;
1164;SDS011;571;50.930;6.926;2022-09-30T06:29:36;8.40;;;7.50;;
1164;SDS011;571;50.930;6.926;2022-09-30T06:32:02;7.00;;;6.00;;
1164;SDS011;571;50.930;6.926;2022-09-30T06:34:30;12.13;;;7.80;;
1164;SDS011;571;50.930;6.926;2022-09-30T06:36:58;8.87;;;8.03;;
1164;SDS011;571;50.930;6.926;2022-09-30T06:39:25;7.83;;;6.93;;
1164;SDS011;571;50.930;6.926;2022-09-30T06:41:52;10.23;;;7.80;;
1164;SDS011;571;50.930;6.926;2022-09-30T06:44:20;9.83;;;6.70;;
1164;SDS011;571;50.930;6.926;2022-09-30T06:46:47;10.73;;;7.13;;
1164;SDS011;571;50.930;6.926;2022-09-30T06:49:16;9.20;;;8.00;;
1164;SDS011;571;50.930;6.926;2022-09-30T06:51:43;11.47;;;8.47;;
1164;SDS011;571;50.930;6.926;2022-09-30T06:54:11;12.80;;;9.40;;
1164;SDS011;571;50.930;6.926;2022-09-30T06:56:38;11.40;;;8.93;;
1164;SDS011;571;50.930;6.926;2022-09-30T06:59:04;13.73;;;9.90;;
1164;SDS011;571;50.930;6.926;2022-09-30T07:01:31;9.60;;;7.23;;
1164;SDS011;571;50.930;6.926;2022-09-30T07:03:58;14.83;;;9.20;;
1164;SDS011;571;50.930;6.926;2022-09-30T07:06:27;14.60;;;10.20;;
1164;SDS011;571;50.930;6.926;2022-09-30T07:08:55;15.67;;;10.53;;
1164;SDS011;571;50.930;6.926;2022-09-30T07:11:23;19.17;;;13.33;;
1164;SDS011;571;50.930;6.926;2022-09-30T07:13:50;20.97;;;13.33;;
1164;SDS011;571;50.930;6.926;2022-09-30T07:16:18;31.23;;;13.20;;
1164;SDS011;571;50.930;6.926;2022-09-30T07:18:46;19.03;;;13.00;;
1164;SDS011;571;50.930;6.926;2022-09-30T07:21:13;18.80;;;12.53;;
1164;SDS011;571;50.930;6.926;2022-09-30T07:23:41;17.40;;;13.37;;
1164;SDS011;571;50.930;6.926;2022-09-30T07:26:12;18.37;;;13.17;;
1164;SDS011;571;50.930;6.926;2022-09-30T07:28:42;20.60;;;14.13;;
1164;SDS011;571;50.930;6.926;2022-09-30T07:31:10;19.17;;;14.03;;
1164;SDS011;571;50.930;6.926;2022-09-30T07:33:39;22.67;;;14.57;;
1164;SDS011;571;50.930;6.926;2022-09-30T07:36:07;17.93;;;13.00;;
1164;SDS011;571;50.930;6.926;2022-09-30T07:38:35;16.03;;;13.10;;
1164;SDS011;571;50.930;6.926;2022-09-30T07:41:05;19.77;;;14.07;;
1164;SDS011;571;50.930;6.926;2022-09-30T07:43:34;18.73;;;15.10;;
1164;SDS011;571;50.930;6.926;2022-09-30T07:46:07;18.33;;;14.57;;
1164;SDS011;571;50.930;6.926;2022-09-30T07:48:36;18.87;;;14.00;;
1164;SDS011;571;50.930;6.926;2022-09-30T07:51:07;17.80;;;14.13;;
1164;SDS011;571;50.930;6.926;2022-09-30T07:53:35;14.40;;;12.33;;
1164;SDS011;571;50.930;6.926;2022-09-30T07:56:02;24.83;;;14.70;;
1164;SDS011;571;50.930;6.926;2022-09-30T07:58:29;19.63;;;13.63;;
1164;SDS011;571;50.930;6.926;2022-09-30T08:00:56;18.60;;;15.00;;
1164;SDS011;571;50.930;6.926;2022-09-30T08:03:26;20.80;;;14.93;;
1164;SDS011;571;50.930;6.926;2022-09-30T08:05:56;17.83;;;13.70;;
1164;SDS011;571;50.930;6.926;2022-09-30T08:08:34;17.20;;;13.53;;
1164;SDS011;571;50.930;6.926;2022-09-30T08:11:17;17.10;;;12.87;;
1164;SDS011;571;50.930;6.926;2022-09-30T08:14:42;21.40;;;14.50;;
1164;SDS011;571;50.930;6.926;2022-09-30T08:17:35;20.77;;;14.50;;
1164;SDS011;571;50.930;6.926;2022-09-30T08:20:18;23.97;;;14.37;;
1164;SDS011;571;50.930;6.926;2022-09-30T08:23:02;19.30;;;14.30;;
1164;SDS011;571;50.930;6.926;2022-09-30T08:25:45;19.77;;;13.97;;
1164;SDS011;571;50.930;6.926;2022-09-30T08:28:34;15.87;;;13.13;;
1164;SDS011;571;50.930;6.926;2022-09-30T08:31:30;18.80;;;13.33;;
1164;SDS011;571;50.930;6.926;2022-09-30T08:34:05;17.10;;;12.30;;
1164;SDS011;571;50.930;6.926;2022-09-30T08:39:59;18.30;;;13.53;;
1164;SDS011;571;50.930;6.926;2022-09-30T08:43:04;17.60;;;14.13;;
1164;SDS011;571;50.930;6.926;2022-09-30T08:45:57;17.37;;;12.93;;
1164;SDS011;571;50.930;6.926;2022-09-30T08:52:34;16.87;;;13.90;;
1164;SDS011;571;50.930;6.926;2022-09-30T08:55:30;19.30;;;13.63;;
1164;SDS011;571;50.930;6.926;2022-09-30T08:58:24;14.10;;;12.17;;
1164;SDS011;571;50.930;6.926;2022-09-30T09:01:00;16.20;;;12.93;;
1164;SDS011;571;50.930;6.926;2022-09-30T09:03:31;15.87;;;11.97;;
1164;SDS011;571;50.930;6.926;2022-09-30T09:06:19;14.73;;;11.77;;
1164;SDS011;571;50.930;6.926;2022-09-30T09:23:25;16.00;;;11.90;;
1164;SDS011;571;50.930;6.926;2022-09-30T09:33:14;14.40;;;12.03;;
1164;SDS011;571;50.930;6.926;2022-09-30T09:50:14;12.83;;;11.43;;
1164;SDS011;571;50.930;6.926;2022-09-30T09:56:55;13.47;;;10.93;;
1164;SDS011;571;50.930;6.926;2022-09-30T09:59:56;15.17;;;10.00;;
1164;SDS011;571;50.930;6.926;2022-09-30T10:02:33;12.60;;;11.33;;
1164;SDS011;571;50.930;6.926;2022-09-30T10:08:10;13.00;;;9.57;;
1164;SDS011;571;50.930;6.926;2022-09-30T10:10:45;12.20;;;10.67;;
1164;SDS011;571;50.930;6.926;2022-09-30T10:13:17;12.97;;;11.00;;
1164;SDS011;571;50.930;6.926;2022-09-30T10:15:46;15.57;;;11.90;;
1164;SDS011;571;50.930;6.926;2022-09-30T10:18:15;11.63;;;10.40;;
1164;SDS011;571;50.930;6.926;2022-09-30T10:20:50;14.17;;;10.70;;
1164;SDS011;571;50.930;6.926;2022-09-30T10:23:24;10.40;;;9.43;;
1164;SDS011;571;50.930;6.926;2022-09-30T10:25:57;10.47;;;8.70;;
1164;SDS011;571;50.930;6.926;2022-09-30T10:28:30;10.53;;;9.13;;
1164;SDS011;571;50.930;6.926;2022-09-30T10:30:59;10.00;;;8.60;;
1164;SDS011;571;50.930;6.926;2022-09-30T10:33:33;10.30;;;9.20;;
1164;SDS011;571;50.930;6.926;2022-09-30T10:36:15;10.30;;;9.30;;
1164;SDS011;571;50.930;6.926;2022-09-30T10:41:19;10.03;;;7.10;;
1164;SDS011;571;50.930;6.926;2022-09-30T10:43:49;10.83;;;8.17;;
1164;SDS011;571;50.930;6.926;2022-09-30T10:46:20;16.03;;;6.87;;
1164;SDS011;571;50.930;6.926;2022-09-30T10:48:48;7.40;;;5.97;;
1164;SDS011;571;50.930;6.926;2022-09-30T10:51:22;11.37;;;6.70;;
1164;SDS011;571;50.930;6.926;2022-09-30T10:53:58;8.23;;;6.03;;
1164;SDS011;571;50.930;6.926;2022-09-30T10:56:36;6.00;;;5.37;;
1164;SDS011;571;50.930;6.926;2022-09-30T10:59:13;8.80;;;6.80;;
1164;SDS011;571;50.930;6.926;2022-09-30T11:01:48;7.00;;;6.23;;
1164;SDS011;571;50.930;6.926;2022-09-30T11:04:21;7.50;;;6.73;;
1164;SDS011;571;50.930;6.926;2022-09-30T11:06:55;10.73;;;6.60;;
1164;SDS011;571;50.930;6.926;2022-09-30T11:09:28;7.73;;;6.00;;
1164;SDS011;571;50.930;6.926;2022-09-30T11:12:03;7.10;;;5.10;;
1164;SDS011;571;50.930;6.926;2022-09-30T11:14:38;6.33;;;5.00;;
1164;SDS011;571;50.930;6.926;2022-09-30T11:17:15;6.43;;;4.83;;
1164;SDS011;571;50.930;6.926;2022-09-30T11:19:55;10.60;;;6.07;;
1164;SDS011;571;50.930;6.926;2022-09-30T11:23:04;6.67;;;4.60;;
1164;SDS011;571;50.930;6.926;2022-09-30T11:25:56;14.80;;;5.13;;
1164;SDS011;571;50.930;6.926;2022-09-30T11:32:07;5.40;;;4.30;;
1164;SDS011;571;50.930;6.926;2022-09-30T11:35:06;7.30;;;4.60;;
1164;SDS011;571;50.930;6.926;2022-09-30T11:37:50;5.03;;;4.40;;
1164;SDS011;571;50.930;6.926;2022-09-30T11:40:32;7.73;;;5.80;;
1164;SDS011;571;50.930;6.926;2022-09-30T11:43:05;5.97;;;4.80;;
1164;SDS011;571;50.930;6.926;2022-09-30T11:45:44;6.23;;;3.97;;
1164;SDS011;571;50.930;6.926;2022-09-30T11:48:39;7.27;;;4.60;;
1164;SDS011;571;50.930;6.926;2022-09-30T11:51:19;4.93;;;3.97;;
1164;SDS011;571;50.930;6.926;2022-09-30T11:53:59;5.13;;;4.70;;
1164;SDS011;571;50.930;6.926;2022-09-30T11:56:39;5.97;;;3.80;;
1164;SDS011;571;50.930;6.926;2022-09-30T11:59:14;4.30;;;3.43;;
1164;SDS011;571;50.930;6.926;2022-09-30T12:01:46;5.40;;;3.60;;
1164;SDS011;571;50.930;6.926;2022-09-30T12:04:16;6.57;;;4.50;;
1164;SDS011;571;50.930;6.926;2022-09-30T12:06:49;5.83;;;4.40;;
1164;SDS011;571;50.930;6.926;2022-09-30T12:09:21;6.00;;;4.20;;
1164;SDS011;571;50.930;6.926;2022-09-30T12:12:01;5.63;;;3.77;;
1164;SDS011;571;50.930;6.926;2022-09-30T12:14:32;6.13;;;3.50;;
1164;SDS011;571;50.930;6.926;2022-09-30T12:17:05;5.97;;;3.57;;
1164;SDS011;571;50.930;6.926;2022-09-30T12:19:42;4.27;;;3.37;;
1164;SDS011;571;50.930;6.926;2022-09-30T12:22:13;4.40;;;3.03;;
1164;SDS011;571;50.930;6.926;2022-09-30T12:24:44;2.93;;;2.60;;
1164;SDS011;571;50.930;6.926;2022-09-30T12:27:17;4.27;;;2.87;;
1164;SDS011;571;50.930;6.926;2022-09-30T12:29:50;3.03;;;2.30;;
1164;SDS011;571;50.930;6.926;2022-09-30T12:35:48;2.73;;;1.90;;
1164;SDS011;571;50.930;6.926;2022-09-30T12:38:39;2.80;;;1.80;;
1164;SDS011;571;50.930;6.926;2022-09-30T12:41:34;3.47;;;1.80;;
1164;SDS011;571;50.930;6.926;2022-09-30T12:44:24;2.20;;;1.57;;
1164;SDS011;571;50.930;6.926;2022-09-30T12:50:11;2.60;;;1.53;;
1164;SDS011;571;50.930;6.926;2022-09-30T12:52:41;3.07;;;1.70;;
1164;SDS011;571;50.930;6.926;2022-09-30T12:55:14;1.33;;;1.03;;
1164;SDS011;571;50.930;6.926;2022-09-30T12:57:47;1.93;;;1.47;;
1164;SDS011;571;50.930;6.926;2022-09-30T13:00:17;1.93;;;1.30;;
1164;SDS011;571;50.930;6.926;2022-09-30T13:02:46;1.60;;;1.00;;
1164;SDS011;571;50.930;6.926;2022-09-30T13:08:22;1.80;;;1.17;;
1164;SDS011;571;50.930;6.926;2022-09-30T13:11:20;1.83;;;1.03;;
1164;SDS011;571;50.930;6.926;2022-09-30T13:13:56;4.77;;;2.37;;
1164;SDS011;571;50.930;6.926;2022-09-30T13:19:36;3.53;;;1.50;;
1164;SDS011;571;50.930;6.926;2022-09-30T13:25:16;2.37;;;1.53;;
1164;SDS011;571;50.930;6.926;2022-09-30T13:27:44;1.80;;;1.70;;
1164;SDS011;571;50.930;6.926;2022-09-30T13:30:31;2.80;;;1.20;;
1164;SDS011;571;50.930;6.926;2022-09-30T13:33:05;3.80;;;1.10;;
1164;SDS011;571;50.930;6.926;2022-09-30T13:35:55;3.30;;;1.70;;
1164;SDS011;571;50.930;6.926;2022-09-30T13:38:32;2.20;;;1.83;;
1164;SDS011;571;50.930;6.926;2022-09-30T13:41:01;1.73;;;1.20;;
1164;SDS011;571;50.930;6.926;2022-09-30T13:43:34;3.23;;;1.60;;
1164;SDS011;571;50.930;6.926;2022-09-30T13:46:10;1.60;;;1.00;;
1164;SDS011;571;50.930;6.926;2022-09-30T13:48:44;2.63;;;1.40;;
1164;SDS011;571;50.930;6.926;2022-09-30T13:51:17;3.90;;;1.03;;
1164;SDS011;571;50.930;6.926;2022-09-30T13:53:49;1.80;;;1.60;;
1164;SDS011;571;50.930;6.926;2022-09-30T13:56:19;2.27;;;1.40;;
1164;SDS011;571;50.930;6.926;2022-09-30T14:05:16;2.10;;;1.20;;
1164;SDS011;571;50.930;6.926;2022-09-30T14:08:12;1.80;;;1.20;;
1164;SDS011;571;50.930;6.926;2022-09-30T14:10:58;1.57;;;1.30;;
1164;SDS011;571;50.930;6.926;2022-09-30T14:13:39;2.00;;;1.33;;
1164;SDS011;571;50.930;6.926;2022-09-30T14:16:19;1.40;;;1.20;;
1164;SDS011;571;50.930;6.926;2022-09-30T14:19:04;1.97;;;1.30;;
1164;SDS011;571;50.930;6.926;2022-09-30T14:21:46;1.83;;;1.30;;
1164;SDS011;571;50.930;6.926;2022-09-30T14:24:21;3.50;;;1.77;;
1164;SDS011;571;50.930;6.926;2022-09-30T14:26:53;1.60;;;1.23;;
1164;SDS011;571;50.930;6.926;2022-09-30T14:29:31;1.20;;;1.10;;
1164;SDS011;571;50.930;6.926;2022-09-30T14:32:10;4.23;;;1.43;;
1164;SDS011;571;50.930;6.926;2022-09-30T14:34:38;1.50;;;1.40;;
1164;SDS011;571;50.930;6.926;2022-09-30T14:37:05;1.90;;;1.77;;
1164;SDS011;571;50.930;6.926;2022-09-30T14:39:41;1.70;;;1.30;;
1164;SDS011;571;50.930;6.926;2022-09-30T14:42:09;4.20;;;2.13;;
1164;SDS011;571;50.930;6.926;2022-09-30T14:44:43;2.23;;;1.40;;
1164;SDS011;571;50.930;6.926;2022-09-30T14:47:11;1.70;;;1.47;;
1164;SDS011;571;50.930;6.926;2022-09-30T14:49:43;2.80;;;1.30;;
1164;SDS011;571;50.930;6.926;2022-09-30T14:55:01;1.53;;;1.20;;
1164;SDS011;571;50.930;6.926;2022-09-30T14:57:29;2.57;;;1.30;;
1164;SDS011;571;50.930;6.926;2022-09-30T15:00:17;2.00;;;1.43;;
1164;SDS011;571;50.930;6.926;2022-09-30T15:02:44;2.10;;;1.57;;
1164;SDS011;571;50.930;6.926;2022-09-30T15:05:11;2.27;;;1.33;;
1164;SDS011;571;50.930;6.926;2022-09-30T15:07:41;2.53;;;1.93;;
1164;SDS011;571;50.930;6.926;2022-09-30T15:10:15;3.90;;;2.80;;
1164;SDS011;571;50.930;6.926;2022-09-30T15:12:44;1.80;;;1.70;;
1164;SDS011;571;50.930;6.926;2022-09-30T15:15:23;6.80;;;2.20;;
1164;SDS011;571;50.930;6.926;2022-09-30T15:17:52;2.47;;;1.43;;
1164;SDS011;571;50.930;6.926;2022-09-30T15:20:27;1.50;;;1.40;;
1164;SDS011;571;50.930;6.926;2022-09-30T15:22:57;4.20;;;1.97;;
1164;SDS011;571;50.930;6.926;2022-09-30T15:25:28;1.50;;;1.10;;
1164;SDS011;571;50.930;6.926;2022-09-30T15:27:56;1.53;;;1.17;;
1164;SDS011;571;50.930;6.926;2022-09-30T15:30:24;2.43;;;1.30;;
1164;SDS011;571;50.930;6.926;2022-09-30T15:32:57;2.70;;;1.27;;
1164;SDS011;571;50.930;6.926;2022-09-30T15:35:26;1.23;;;1.10;;
1164;SDS011;571;50.930;6.926;2022-09-30T15:37:53;1.90;;;1.37;;
1164;SDS011;571;50.930;6.926;2022-09-30T15:40:33;2.00;;;1.40;;
1164;SDS011;571;50.930;6.926;2022-09-30T15:43:14;1.50;;;1.27;;
1164;SDS011;571;50.930;6.926;2022-09-30T15:45:51;2.17;;;1.10;;
1164;SDS011;571;50.930;6.926;2022-09-30T15:48:31;1.60;;;1.37;;
1164;SDS011;571;50.930;6.926;2022-09-30T15:51:00;2.33;;;1.57;;
1164;SDS011;571;50.930;6.926;2022-09-30T15:53:51;1.30;;;0.90;;
1164;SDS011;571;50.930;6.926;2022-09-30T15:56:24;2.10;;;1.13;;
1164;SDS011;571;50.930;6.926;2022-09-30T15:58:57;2.93;;;1.43;;
1164;SDS011;571;50.930;6.926;2022-09-30T16:01:24;1.30;;;0.90;;
1164;SDS011;571;50.930;6.926;2022-09-30T16:03:57;1.77;;;1.23;;
1164;SDS011;571;50.930;6.926;2022-09-30T16:06:27;3.80;;;1.57;;
1164;SDS011;571;50.930;6.926;2022-09-30T16:08:59;1.80;;;1.20;;
1164;SDS011;571;50.930;6.926;2022-09-30T16:11:29;1.10;;;1.00;;
1164;SDS011;571;50.930;6.926;2022-09-30T16:14:00;1.37;;;1.03;;
1164;SDS011;571;50.930;6.926;2022-09-30T16:16:31;1.37;;;1.10;;
1164;SDS011;571;50.930;6.926;2022-09-30T16:18:59;2.83;;;1.20;;
1164;SDS011;571;50.930;6.926;2022-09-30T16:21:37;1.87;;;1.40;;
1164;SDS011;571;50.930;6.926;2022-09-30T16:27:25;1.93;;;1.40;;
1164;SDS011;571;50.930;6.926;2022-09-30T16:29:55;2.40;;;1.23;;
1164;SDS011;571;50.930;6.926;2022-09-30T16:32:23;1.90;;;1.13;;
1164;SDS011;571;50.930;6.926;2022-09-30T16:34:51;3.20;;;1.83;;
1164;SDS011;571;50.930;6.926;2022-09-30T16:37:18;1.03;;;0.90;;
1164;SDS011;571;50.930;6.926;2022-09-30T16:39:46;1.53;;;1.30;;
1164;SDS011;571;50.930;6.926;2022-09-30T16:42:14;1.80;;;1.20;;
1164;SDS011;571;50.930;6.926;2022-09-30T16:44:45;3.50;;;1.30;;
1164;SDS011;571;50.930;6.926;2022-09-30T16:47:12;1.87;;;1.20;;
1164;SDS011;571;50.930;6.926;2022-09-30T16:49:40;2.33;;;1.67;;
1164;SDS011;571;50.930;6.926;2022-09-30T16:52:08;2.77;;;2.17;;
1164;SDS011;571;50.930;6.926;2022-09-30T16:54:35;1.60;;;1.20;;
1164;SDS011;571;50.930;6.926;2022-09-30T16:57:02;2.50;;;1.37;;
1164;SDS011;571;50.930;6.926;2022-09-30T16:59:30;1.67;;;1.20;;
1164;SDS011;571;50.930;6.926;2022-09-30T17:01:58;2.30;;;1.77;;
1164;SDS011;571;50.930;6.926;2022-09-30T17:04:26;3.20;;;1.23;;
1164;SDS011;571;50.930;6.926;2022-09-30T17:06:55;2.53;;;1.67;;
1164;SDS011;571;50.930;6.926;2022-09-30T17:09:23;1.90;;;1.50;;
1164;SDS011;571;50.930;6.926;2022-09-30T17:11:50;3.50;;;1.80;;
1164;SDS011;571;50.930;6.926;2022-09-30T17:14:17;3.40;;;1.40;;
1164;SDS011;571;50.930;6.926;2022-09-30T17:16:44;2.27;;;1.60;;
1164;SDS011;571;50.930;6.926;2022-09-30T17:19:12;2.20;;;1.50;;
1164;SDS011;571;50.930;6.926;2022-09-30T17:21:40;2.30;;;1.57;;
1164;SDS011;571;50.930;6.926;2022-09-30T17:24:06;2.00;;;1.60;;
1164;SDS011;571;50.930;6.926;2022-09-30T17:26:34;2.20;;;1.57;;
1164;SDS011;571;50.930;6.926;2022-09-30T17:29:03;3.33;;;1.73;;
1164;SDS011;571;50.930;6.926;2022-09-30T17:31:31;2.37;;;1.80;;
1164;SDS011;571;50.930;6.926;2022-09-30T17:33:57;1.53;;;1.33;;
1164;SDS011;571;50.930;6.926;2022-09-30T17:36:26;1.67;;;1.27;;
1164;SDS011;571;50.930;6.926;2022-09-30T17:38:52;2.80;;;2.00;;
1164;SDS011;571;50.930;6.926;2022-09-30T17:41:20;2.60;;;2.00;;
1164;SDS011;571;50.930;6.926;2022-09-30T17:44:04;3.07;;;1.47;;
1164;SDS011;571;50.930;6.926;2022-09-30T17:46:38;2.03;;;1.57;;
1164;SDS011;571;50.930;6.926;2022-09-30T17:49:06;2.30;;;1.60;;
1164;SDS011;571;50.930;6.926;2022-09-30T17:51:35;2.00;;;1.53;;
1164;SDS011;571;50.930;6.926;2022-09-30T17:54:02;3.63;;;2.10;;
1164;SDS011;571;50.930;6.926;2022-09-30T17:56:31;2.00;;;1.70;;
1164;SDS011;571;50.930;6.926;2022-09-30T17:58:58;2.07;;;1.87;;
1164;SDS011;571;50.930;6.926;2022-09-30T18:01:26;4.13;;;2.17;;
1164;SDS011;571;50.930;6.926;2022-09-30T18:03:56;2.10;;;1.90;;
1164;SDS011;571;50.930;6.926;2022-09-30T18:06:24;2.20;;;2.00;;
1164;SDS011;571;50.930;6.926;2022-09-30T18:09:06;2.33;;;1.53;;
1164;SDS011;571;50.930;6.926;2022-09-30T18:11:43;1.77;;;1.50;;
1164;SDS011;571;50.930;6.926;2022-09-30T18:14:12;4.17;;;2.30;;
1164;SDS011;571;50.930;6.926;2022-09-30T18:16:40;2.93;;;2.50;;
1164;SDS011;571;50.930;6.926;2022-09-30T18:19:07;2.17;;;1.90;;
1164;SDS011;571;50.930;6.926;2022-09-30T18:21:35;3.23;;;2.57;;
1164;SDS011;571;50.930;6.926;2022-09-30T18:24:02;5.60;;;2.43;;
1164;SDS011;571;50.930;6.926;2022-09-30T18:26:32;2.60;;;2.40;;
1164;SDS011;571;50.930;6.926;2022-09-30T18:29:00;3.70;;;2.90;;
1164;SDS011;571;50.930;6.926;2022-09-30T18:31:27;7.07;;;3.03;;
1164;SDS011;571;50.930;6.926;2022-09-30T18:33:58;4.50;;;2.80;;
1164;SDS011;571;50.930;6.926;2022-09-30T18:36:26;3.63;;;2.10;;
1164;SDS011;571;50.930;6.926;2022-09-30T18:38:53;2.60;;;2.40;;
1164;SDS011;571;50.930;6.926;2022-09-30T18:41:22;2.93;;;2.13;;
1164;SDS011;571;50.930;6.926;2022-09-30T18:43:53;3.23;;;2.70;;
1164;SDS011;571;50.930;6.926;2022-09-30T18:46:23;3.07;;;2.10;;
1164;SDS011;571;50.930;6.926;2022-09-30T18:48:53;2.57;;;2.30;;
1164;SDS011;571;50.930;6.926;2022-09-30T18:51:22;4.47;;;2.70;;
1164;SDS011;571;50.930;6.926;2022-09-30T18:53:52;2.93;;;2.63;;
1164;SDS011;571;50.930;6.926;2022-09-30T18:56:21;2.40;;;2.20;;
1164;SDS011;571;50.930;6.926;2022-09-30T18:58:49;3.50;;;2.53;;
1164;SDS011;571;50.930;6.926;2022-09-30T19:01:18;2.70;;;2.13;;
1164;SDS011;571;50.930;6.926;2022-09-30T19:03:45;3.20;;;2.10;;
1164;SDS011;571;50.930;6.926;2022-09-30T19:06:12;2.23;;;2.03;;
1164;SDS011;571;50.930;6.926;2022-09-30T19:08:39;3.53;;;3.20;;
1164;SDS011;571;50.930;6.926;2022-09-30T19:11:08;2.80;;;2.30;;
1164;SDS011;571;50.930;6.926;2022-09-30T19:13:38;3.10;;;2.00;;
1164;SDS011;571;50.930;6.926;2022-09-30T19:16:07;2.93;;;2.37;;
1164;SDS011;571;50.930;6.926;2022-09-30T19:18:38;3.07;;;2.00;;
1164;SDS011;571;50.930;6.926;2022-09-30T19:21:05;2.90;;;2.70;;
1164;SDS011;571;50.930;6.926;2022-09-30T19:23:34;3.17;;;2.60;;
1164;SDS011;571;50.930;6.926;2022-09-30T19:26:01;3.00;;;2.60;;
1164;SDS011;571;50.930;6.926;2022-09-30T19:28:29;4.50;;;3.10;;
1164;SDS011;571;50.930;6.926;2022-09-30T19:30:57;4.03;;;3.20;;
1164;SDS011;571;50.930;6.926;2022-09-30T19:33:27;3.70;;;2.40;;
1164;SDS011;571;50.930;6.926;2022-09-30T19:36:02;6.60;;;3.10;;
1164;SDS011;571;50.930;6.926;2022-09-30T19:38:31;3.43;;;3.00;;
1164;SDS011;571;50.930;6.926;2022-09-30T19:40:58;2.90;;;2.10;;
1164;SDS011;571;50.930;6.926;2022-09-30T19:43:26;3.67;;;2.80;;
1164;SDS011;571;50.930;6.926;2022-09-30T19:45:54;3.07;;;2.43;;
1164;SDS011;571;50.930;6.926;2022-09-30T19:48:22;5.27;;;3.40;;
1164;SDS011;571;50.930;6.926;2022-09-30T19:50:55;3.47;;;3.17;;
1164;SDS011;571;50.930;6.926;2022-09-30T19:53:24;6.23;;;3.07;;
1164;SDS011;571;50.930;6.926;2022-09-30T19:56:02;2.80;;;2.50;;
1164;SDS011;571;50.930;6.926;2022-09-30T19:58:30;3.73;;;3.20;;
1164;SDS011;571;50.930;6.926;2022-09-30T20:00:57;4.50;;;2.70;;
1164;SDS011;571;50.930;6.926;2022-09-30T20:03:25;4.90;;;4.40;;
1164;SDS011;571;50.930;6.926;2022-09-30T20:05:56;3.70;;;3.40;;
1164;SDS011;571;50.930;6.926;2022-09-30T20:08:25;3.80;;;3.23;;
1164;SDS011;571;50.930;6.926;2022-09-30T20:10:52;4.17;;;3.40;;
1164;SDS011;571;50.930;6.926;2022-09-30T20:13:19;3.00;;;2.70;;
1164;SDS011;571;50.930;6.926;2022-09-30T20:15:46;4.37;;;2.83;;
1164;SDS011;571;50.930;6.926;2022-09-30T20:18:14;3.50;;;3.20;;
1164;SDS011;571;50.930;6.926;2022-09-30T20:20:41;4.00;;;2.50;;
1164;SDS011;571;50.930;6.926;2022-09-30T20:23:09;3.80;;;3.00;;
1164;SDS011;571;50.930;6.926;2022-09-30T20:25:38;5.97;;;3.93;;
1164;SDS011;571;50.930;6.926;2022-09-30T20:28:05;3.97;;;2.90;;
1164;SDS011;571;50.930;6.926;2022-09-30T20:30:33;3.87;;;2.90;;
1164;SDS011;571;50.930;6.926;2022-09-30T20:33:10;4.63;;;3.77;;
1164;SDS011;571;50.930;6.926;2022-09-30T20:35:41;3.83;;;3.53;;
1164;SDS011;571;50.930;6.926;2022-09-30T20:38:08;3.67;;;3.27;;
1164;SDS011;571;50.930;6.926;2022-09-30T20:40:41;4.87;;;4.07;;
1164;SDS011;571;50.930;6.926;2022-09-30T20:43:08;4.90;;;3.90;;
1164;SDS011;571;50.930;6.926;2022-09-30T20:45:36;7.10;;;3.50;;
1164;SDS011;571;50.930;6.926;2022-09-30T20:48:05;6.20;;;5.03;;
1164;SDS011;571;50.930;6.926;2022-09-30T20:50:33;4.90;;;3.50;;
1164;SDS011;571;50.930;6.926;2022-09-30T20:53:01;4.43;;;3.67;;
1164;SDS011;571;50.930;6.926;2022-09-30T20:55:29;4.73;;;3.60;;
1164;SDS011;571;50.930;6.926;2022-09-30T20:57:59;3.70;;;3.40;;
1164;SDS011;571;50.930;6.926;2022-09-30T21:00:26;5.73;;;4.40;;
1164;SDS011;571;50.930;6.926;2022-09-30T21:02:53;7.17;;;3.47;;
1164;SDS011;571;50.930;6.926;2022-09-30T21:05:21;5.53;;;3.50;;
1164;SDS011;571;50.930;6.926;2022-09-30T21:07:48;5.57;;;4.13;;
1164;SDS011;571;50.930;6.926;2022-09-30T21:10:15;6.77;;;4.00;;
1164;SDS011;571;50.930;6.926;2022-09-30T21:12:42;3.83;;;3.50;;
1164;SDS011;571;50.930;6.926;2022-09-30T21:15:12;5.87;;;3.70;;
1164;SDS011;571;50.930;6.926;2022-09-30T21:17:40;5.27;;;3.27;;
1164;SDS011;571;50.930;6.926;2022-09-30T21:20:08;5.50;;;3.60;;